sensor_id;sensor_type;location;lat;lon;timestamp;P1;durP1;ratioP1;P2;durP2;ratioP2
16673;SDS011;8450;52.654;10.326;2023-03-13T08:03:28;4.23;;;2.03;;
16673;SDS011;8450;52.654;10.326;2023-03-13T08:06:00;5.00;;;2.67;;
16673;SDS011;8450;52.654;10.326;2023-03-13T08:08:34;5.30;;;2.83;;
16673;SDS011;8450;52.654;10.326;2023-03-13T08:13:27;5.63;;;2.43;;
16673;SDS011;8450;52.654;10.326;2023-03-13T08:16:00;4.93;;;2.43;;
16673;SDS011;8450;52.654;10.326;2023-03-13T08:18:30;4.17;;;2.33;;
16673;SDS011;8450;52.654;10.326;2023-03-13T08:21:09;4.63;;;2.80;;
16673;SDS011;8450;52.654;10.326;2023-03-13T08:23:37;4.60;;;2.40;;
16673;SDS011;8450;52.654;10.326;2023-03-13T08:26:10;4.97;;;2.10;;
16673;SDS011;8450;52.654;10.326;2023-03-13T08:28:40;3.93;;;1.83;;
16673;SDS011;8450;52.654;10.326;2023-03-13T08:31:14;3.33;;;2.20;;
16673;SDS011;8450;52.654;10.326;2023-03-13T08:33:50;3.87;;;2.30;;
16673;SDS011;8450;52.654;10.326;2023-03-13T08:36:17;3.70;;;2.63;;
16673;SDS011;8450;52.654;10.326;2023-03-13T08:38:43;3.47;;;2.10;;
16673;SDS011;8450;52.654;10.326;2023-03-13T08:41:10;2.67;;;2.23;;
16673;SDS011;8450;52.654;10.326;2023-03-13T08:43:37;2.73;;;2.30;;
16673;SDS011;8450;52.654;10.326;2023-03-13T08:46:02;5.23;;;2.30;;
16673;SDS011;8450;52.654;10.326;2023-03-13T08:48:28;3.93;;;2.30;;
16673;SDS011;8450;52.654;10.326;2023-03-13T08:50:59;3.30;;;2.50;;
16673;SDS011;8450;52.654;10.326;2023-03-13T08:53:26;3.33;;;2.50;;
16673;SDS011;8450;52.654;10.326;2023-03-13T08:55:52;5.50;;;2.30;;
16673;SDS011;8450;52.654;10.326;2023-03-13T08:58:18;4.63;;;2.47;;
16673;SDS011;8450;52.654;10.326;2023-03-13T09:00:43;3.03;;;2.60;;
16673;SDS011;8450;52.654;10.326;2023-03-13T09:03:09;3.13;;;2.37;;
16673;SDS011;8450;52.654;10.326;2023-03-13T09:05:36;7.47;;;3.03;;
16673;SDS011;8450;52.654;10.326;2023-03-13T09:08:02;2.60;;;2.40;;
16673;SDS011;8450;52.654;10.326;2023-03-13T09:10:27;2.60;;;2.40;;
16673;SDS011;8450;52.654;10.326;2023-03-13T09:12:53;2.63;;;2.43;;
16673;SDS011;8450;52.654;10.326;2023-03-13T09:15:19;4.17;;;2.60;;
16673;SDS011;8450;52.654;10.326;2023-03-13T09:17:45;3.07;;;2.40;;
16673;SDS011;8450;52.654;10.326;2023-03-13T09:20:10;2.60;;;2.40;;
16673;SDS011;8450;52.654;10.326;2023-03-13T09:22:36;3.23;;;2.30;;
16673;SDS011;8450;52.654;10.326;2023-03-13T09:25:01;2.30;;;2.10;;
16673;SDS011;8450;52.654;10.326;2023-03-13T09:27:27;2.70;;;2.50;;
16673;SDS011;8450;52.654;10.326;2023-03-13T09:29:53;2.50;;;2.30;;
16673;SDS011;8450;52.654;10.326;2023-03-13T09:32:18;2.80;;;2.27;;
16673;SDS011;8450;52.654;10.326;2023-03-13T09:34:44;2.47;;;2.27;;
16673;SDS011;8450;52.654;10.326;2023-03-13T09:37:10;2.57;;;2.37;;
16673;SDS011;8450;52.654;10.326;2023-03-13T09:39:36;3.13;;;2.47;;
16673;SDS011;8450;52.654;10.326;2023-03-13T09:42:18;2.63;;;2.40;;
16673;SDS011;8450;52.654;10.326;2023-03-13T09:44:51;2.83;;;2.33;;
16673;SDS011;8450;52.654;10.326;2023-03-13T09:47:29;2.80;;;2.50;;
16673;SDS011;8450;52.654;10.326;2023-03-13T09:50:17;2.80;;;2.50;;
16673;SDS011;8450;52.654;10.326;2023-03-13T09:52:49;4.00;;;2.70;;
16673;SDS011;8450;52.654;10.326;2023-03-13T09:55:20;3.37;;;2.77;;
16673;SDS011;8450;52.654;10.326;2023-03-13T09:57:52;3.43;;;2.60;;
16673;SDS011;8450;52.654;10.326;2023-03-13T10:00:26;3.00;;;2.70;;
16673;SDS011;8450;52.654;10.326;2023-03-13T10:03:11;4.30;;;2.57;;
16673;SDS011;8450;52.654;10.326;2023-03-13T10:05:54;3.63;;;2.77;;
16673;SDS011;8450;52.654;10.326;2023-03-13T10:08:23;3.37;;;2.80;;
16673;SDS011;8450;52.654;10.326;2023-03-13T10:13:19;3.67;;;2.70;;
16673;SDS011;8450;52.654;10.326;2023-03-13T10:15:55;3.17;;;2.73;;
16673;SDS011;8450;52.654;10.326;2023-03-13T10:18:24;3.40;;;2.50;;
16673;SDS011;8450;52.654;10.326;2023-03-13T10:20:52;4.67;;;2.83;;
16673;SDS011;8450;52.654;10.326;2023-03-13T10:23:40;4.23;;;2.60;;
16673;SDS011;8450;52.654;10.326;2023-03-13T10:26:26;3.10;;;2.77;;
16673;SDS011;8450;52.654;10.326;2023-03-13T10:28:54;3.57;;;2.50;;
16673;SDS011;8450;52.654;10.326;2023-03-13T10:34:07;3.27;;;2.73;;
16673;SDS011;8450;52.654;10.326;2023-03-13T10:36:43;2.73;;;2.50;;
16673;SDS011;8450;52.654;10.326;2023-03-13T10:39:18;2.90;;;2.60;;
16673;SDS011;8450;52.654;10.326;2023-03-13T10:41:45;5.40;;;3.23;;
16673;SDS011;8450;52.654;10.326;2023-03-13T10:44:17;2.80;;;2.60;;
16673;SDS011;8450;52.654;10.326;2023-03-13T10:46:45;2.80;;;2.60;;
16673;SDS011;8450;52.654;10.326;2023-03-13T10:49:16;2.60;;;2.40;;
16673;SDS011;8450;52.654;10.326;2023-03-13T10:51:56;3.10;;;2.80;;
16673;SDS011;8450;52.654;10.326;2023-03-13T10:54:27;2.90;;;2.70;;
16673;SDS011;8450;52.654;10.326;2023-03-13T10:59:42;2.73;;;2.53;;
16673;SDS011;8450;52.654;10.326;2023-03-13T11:04:48;2.83;;;2.63;;
16673;SDS011;8450;52.654;10.326;2023-03-13T11:07:31;3.40;;;3.10;;
16673;SDS011;8450;52.654;10.326;2023-03-13T11:09:59;3.67;;;2.70;;
16673;SDS011;8450;52.654;10.326;2023-03-13T11:12:49;3.17;;;2.50;;
16673;SDS011;8450;52.654;10.326;2023-03-13T11:15:19;3.30;;;3.00;;
16673;SDS011;8450;52.654;10.326;2023-03-13T11:20:34;2.70;;;2.50;;
16673;SDS011;8450;52.654;10.326;2023-03-13T11:23:18;2.80;;;2.50;;
16673;SDS011;8450;52.654;10.326;2023-03-13T11:28:49;4.37;;;2.93;;
16673;SDS011;8450;52.654;10.326;2023-03-13T11:31:41;3.17;;;2.80;;
16673;SDS011;8450;52.654;10.326;2023-03-13T11:48:19;2.73;;;2.53;;
16673;SDS011;8450;52.654;10.326;2023-03-13T11:54:08;3.37;;;3.07;;
16673;SDS011;8450;52.654;10.326;2023-03-13T11:56:51;3.53;;;3.23;;
16673;SDS011;8450;52.654;10.326;2023-03-13T11:59:31;3.43;;;3.13;;
16673;SDS011;8450;52.654;10.326;2023-03-13T12:05:08;3.90;;;3.37;;
16673;SDS011;8450;52.654;10.326;2023-03-13T12:07:40;3.73;;;2.90;;
16673;SDS011;8450;52.654;10.326;2023-03-13T12:10:17;3.53;;;3.23;;
16673;SDS011;8450;52.654;10.326;2023-03-13T12:12:58;5.10;;;3.20;;
16673;SDS011;8450;52.654;10.326;2023-03-13T12:15:51;4.27;;;3.13;;
16673;SDS011;8450;52.654;10.326;2023-03-13T12:18:43;3.80;;;3.27;;
16673;SDS011;8450;52.654;10.326;2023-03-13T12:21:18;4.37;;;3.23;;
16673;SDS011;8450;52.654;10.326;2023-03-13T12:24:05;3.00;;;2.73;;
16673;SDS011;8450;52.654;10.326;2023-03-13T12:29:54;3.23;;;2.93;;
16673;SDS011;8450;52.654;10.326;2023-03-13T12:32:35;3.20;;;3.00;;
16673;SDS011;8450;52.654;10.326;2023-03-13T12:35:27;4.23;;;3.23;;
16673;SDS011;8450;52.654;10.326;2023-03-13T12:43:39;3.37;;;3.07;;
16673;SDS011;8450;52.654;10.326;2023-03-13T12:46:15;3.00;;;2.80;;
16673;SDS011;8450;52.654;10.326;2023-03-13T12:49:18;3.30;;;3.00;;
16673;SDS011;8450;52.654;10.326;2023-03-13T12:54:30;3.33;;;2.97;;
16673;SDS011;8450;52.654;10.326;2023-03-13T12:59:57;3.40;;;3.10;;
16673;SDS011;8450;52.654;10.326;2023-03-13T13:02:30;3.00;;;2.73;;
16673;SDS011;8450;52.654;10.326;2023-03-13T13:04:57;2.70;;;2.50;;
16673;SDS011;8450;52.654;10.326;2023-03-13T13:07:34;2.90;;;2.60;;
16673;SDS011;8450;52.654;10.326;2023-03-13T13:12:33;3.77;;;2.60;;
16673;SDS011;8450;52.654;10.326;2023-03-13T13:15:02;2.67;;;2.43;;
16673;SDS011;8450;52.654;10.326;2023-03-13T13:20:37;4.43;;;2.90;;
16673;SDS011;8450;52.654;10.326;2023-03-13T13:23:23;2.83;;;2.40;;
16673;SDS011;8450;52.654;10.326;2023-03-13T13:26:37;2.73;;;2.53;;
16673;SDS011;8450;52.654;10.326;2023-03-13T13:28:57;3.03;;;2.80;;
16673;SDS011;8450;52.654;10.326;2023-03-13T13:37:23;3.23;;;2.93;;
16673;SDS011;8450;52.654;10.326;2023-03-13T13:39:49;3.43;;;2.70;;
16673;SDS011;8450;52.654;10.326;2023-03-13T13:42:36;3.70;;;2.50;;
16673;SDS011;8450;52.654;10.326;2023-03-13T13:47:43;3.60;;;2.70;;
16673;SDS011;8450;52.654;10.326;2023-03-13T13:50:21;3.23;;;2.87;;
16673;SDS011;8450;52.654;10.326;2023-03-13T13:52:48;2.87;;;2.57;;
16673;SDS011;8450;52.654;10.326;2023-03-13T13:55:31;3.33;;;2.60;;
16673;SDS011;8450;52.654;10.326;2023-03-13T13:58:10;3.17;;;2.93;;
16673;SDS011;8450;52.654;10.326;2023-03-13T14:00:40;3.20;;;2.90;;
16673;SDS011;8450;52.654;10.326;2023-03-13T14:03:17;3.40;;;2.63;;
16673;SDS011;8450;52.654;10.326;2023-03-13T14:05:54;3.50;;;2.90;;
16673;SDS011;8450;52.654;10.326;2023-03-13T14:08:32;2.67;;;2.47;;
16673;SDS011;8450;52.654;10.326;2023-03-13T14:13:31;2.80;;;2.50;;
16673;SDS011;8450;52.654;10.326;2023-03-13T14:15:57;3.43;;;2.90;;
16673;SDS011;8450;52.654;10.326;2023-03-13T14:18:45;2.67;;;2.47;;
16673;SDS011;8450;52.654;10.326;2023-03-13T14:21:12;3.70;;;2.97;;
16673;SDS011;8450;52.654;10.326;2023-03-13T14:23:38;2.80;;;2.60;;
16673;SDS011;8450;52.654;10.326;2023-03-13T14:26:20;3.20;;;2.40;;
16673;SDS011;8450;52.654;10.326;2023-03-13T14:28:57;2.53;;;2.33;;
16673;SDS011;8450;52.654;10.326;2023-03-13T14:31:28;3.33;;;2.50;;
16673;SDS011;8450;52.654;10.326;2023-03-13T14:33:57;2.50;;;2.30;;
16673;SDS011;8450;52.654;10.326;2023-03-13T14:36:28;2.87;;;2.20;;
16673;SDS011;8450;52.654;10.326;2023-03-13T14:38:54;2.60;;;2.40;;
16673;SDS011;8450;52.654;10.326;2023-03-13T14:44:25;2.10;;;1.97;;
16673;SDS011;8450;52.654;10.326;2023-03-13T14:46:55;2.47;;;2.23;;
16673;SDS011;8450;52.654;10.326;2023-03-13T14:49:23;2.43;;;2.07;;
16673;SDS011;8450;52.654;10.326;2023-03-13T14:51:59;2.00;;;1.90;;
16673;SDS011;8450;52.654;10.326;2023-03-13T14:54:32;3.43;;;1.90;;
16673;SDS011;8450;52.654;10.326;2023-03-13T14:59:33;2.67;;;2.00;;
16673;SDS011;8450;52.654;10.326;2023-03-13T15:02:00;2.27;;;1.70;;
16673;SDS011;8450;52.654;10.326;2023-03-13T15:04:50;2.07;;;1.70;;
16673;SDS011;8450;52.654;10.326;2023-03-13T15:07:18;2.00;;;1.80;;
16673;SDS011;8450;52.654;10.326;2023-03-13T15:09:45;2.13;;;1.73;;
16673;SDS011;8450;52.654;10.326;2023-03-13T15:12:12;2.03;;;1.63;;
16673;SDS011;8450;52.654;10.326;2023-03-13T15:14:45;1.67;;;1.57;;
16673;SDS011;8450;52.654;10.326;2023-03-13T15:19:39;2.17;;;1.60;;
16673;SDS011;8450;52.654;10.326;2023-03-13T15:22:08;1.67;;;1.57;;
16673;SDS011;8450;52.654;10.326;2023-03-13T15:24:38;2.00;;;1.50;;
16673;SDS011;8450;52.654;10.326;2023-03-13T15:27:10;1.60;;;1.50;;
16673;SDS011;8450;52.654;10.326;2023-03-13T15:29:46;1.40;;;1.30;;
16673;SDS011;8450;52.654;10.326;2023-03-13T15:35:27;1.70;;;1.60;;
16673;SDS011;8450;52.654;10.326;2023-03-13T15:37:56;1.70;;;1.60;;
16673;SDS011;8450;52.654;10.326;2023-03-13T15:40:23;1.60;;;1.50;;
16673;SDS011;8450;52.654;10.326;2023-03-13T15:42:49;1.70;;;1.50;;
16673;SDS011;8450;52.654;10.326;2023-03-13T15:45:16;2.07;;;1.50;;
16673;SDS011;8450;52.654;10.326;2023-03-13T15:47:41;1.50;;;1.40;;
16673;SDS011;8450;52.654;10.326;2023-03-13T15:50:14;1.73;;;1.50;;
16673;SDS011;8450;52.654;10.326;2023-03-13T15:52:42;1.90;;;1.70;;
16673;SDS011;8450;52.654;10.326;2023-03-13T15:55:11;1.50;;;1.40;;
16673;SDS011;8450;52.654;10.326;2023-03-13T15:57:41;1.70;;;1.30;;
16673;SDS011;8450;52.654;10.326;2023-03-13T16:00:14;1.67;;;1.57;;
16673;SDS011;8450;52.654;10.326;2023-03-13T16:02:48;1.40;;;1.30;;
16673;SDS011;8450;52.654;10.326;2023-03-13T16:05:14;2.33;;;1.53;;
16673;SDS011;8450;52.654;10.326;2023-03-13T16:07:40;1.60;;;1.50;;
16673;SDS011;8450;52.654;10.326;2023-03-13T16:10:11;2.50;;;1.40;;
16673;SDS011;8450;52.654;10.326;2023-03-13T16:12:52;2.50;;;1.70;;
16673;SDS011;8450;52.654;10.326;2023-03-13T16:15:18;2.07;;;1.80;;
16673;SDS011;8450;52.654;10.326;2023-03-13T16:17:44;2.83;;;1.50;;
16673;SDS011;8450;52.654;10.326;2023-03-13T16:20:14;1.63;;;1.53;;
16673;SDS011;8450;52.654;10.326;2023-03-13T16:22:42;1.40;;;1.30;;
16673;SDS011;8450;52.654;10.326;2023-03-13T16:25:08;1.50;;;1.40;;
16673;SDS011;8450;52.654;10.326;2023-03-13T16:27:34;2.37;;;1.30;;
16673;SDS011;8450;52.654;10.326;2023-03-13T16:30:00;1.63;;;1.50;;
16673;SDS011;8450;52.654;10.326;2023-03-13T16:32:26;1.53;;;1.40;;
16673;SDS011;8450;52.654;10.326;2023-03-13T16:34:52;1.70;;;1.40;;
16673;SDS011;8450;52.654;10.326;2023-03-13T16:37:18;2.37;;;1.40;;
16673;SDS011;8450;52.654;10.326;2023-03-13T16:39:45;1.30;;;1.20;;
